sensor_id;sensor_type;location;lat;lon;timestamp;pressure;altitude;pressure_sealevel;temperature;humidity
22651;BME280;11492;42.646;23.400;2022-11-04T00:01:24;95185.22;;;12.46;62.23
22651;BME280;11492;42.646;23.400;2022-11-04T00:03:51;95185.66;;;12.50;62.69
22651;BME280;11492;42.646;23.400;2022-11-04T00:06:17;95182.88;;;12.51;62.86
22651;BME280;11492;42.646;23.400;2022-11-04T00:08:56;95178.09;;;12.48;62.64
22651;BME280;11492;42.646;23.400;2022-11-04T00:11:23;95178.88;;;12.49;62.26
22651;BME280;11492;42.646;23.400;2022-11-04T00:14:08;95153.91;;;12.42;62.98
22651;BME280;11492;42.646;23.400;2022-11-04T00:16:33;95176.91;;;12.51;63.18
22651;BME280;11492;42.646;23.400;2022-11-04T00:19:18;95174.06;;;12.46;62.22
22651;BME280;11492;42.646;23.400;2022-11-04T00:21:44;95180.03;;;12.46;62.81
22651;BME280;11492;42.646;23.400;2022-11-04T00:24:28;95176.66;;;12.46;63.20
22651;BME280;11492;42.646;23.400;2022-11-04T00:27:12;95182.38;;;12.42;62.79
22651;BME280;11492;42.646;23.400;2022-11-04T00:29:57;95173.97;;;12.33;62.48
22651;BME280;11492;42.646;23.400;2022-11-04T00:32:23;95176.31;;;12.28;62.48
22651;BME280;11492;42.646;23.400;2022-11-04T00:35:08;95171.47;;;12.25;62.99
22651;BME280;11492;42.646;23.400;2022-11-04T00:37:37;95173.81;;;12.20;62.93
22651;BME280;11492;42.646;23.400;2022-11-04T00:40:04;95169.03;;;12.18;63.58
22651;BME280;11492;42.646;23.400;2022-11-04T00:42:30;95165.38;;;12.12;62.85
22651;BME280;11492;42.646;23.400;2022-11-04T00:44:55;95167.91;;;12.06;64.05
22651;BME280;11492;42.646;23.400;2022-11-04T00:47:21;95166.47;;;12.03;64.05
22651;BME280;11492;42.646;23.400;2022-11-04T00:49:46;95164.63;;;11.97;64.20
22651;BME280;11492;42.646;23.400;2022-11-04T00:52:12;95166.66;;;12.02;63.57
22651;BME280;11492;42.646;23.400;2022-11-04T00:54:37;95163.84;;;11.97;64.04
22651;BME280;11492;42.646;23.400;2022-11-04T00:57:02;95156.06;;;11.97;63.37
22651;BME280;11492;42.646;23.400;2022-11-04T00:59:28;95145.91;;;11.96;64.33
22651;BME280;11492;42.646;23.400;2022-11-04T01:01:54;95146.25;;;11.93;63.96
22651;BME280;11492;42.646;23.400;2022-11-04T01:04:20;95148.06;;;11.92;64.01
22651;BME280;11492;42.646;23.400;2022-11-04T01:06:46;95137.25;;;11.89;64.17
22651;BME280;11492;42.646;23.400;2022-11-04T01:09:11;95143.06;;;11.91;64.21
22651;BME280;11492;42.646;23.400;2022-11-04T01:11:37;95138.19;;;11.81;64.34
22651;BME280;11492;42.646;23.400;2022-11-04T01:14:03;95144.75;;;11.84;64.70
22651;BME280;11492;42.646;23.400;2022-11-04T01:16:29;95142.03;;;11.85;64.12
22651;BME280;11492;42.646;23.400;2022-11-04T01:18:55;95133.19;;;11.80;64.86
22651;BME280;11492;42.646;23.400;2022-11-04T01:21:21;95130.22;;;11.83;64.91
22651;BME280;11492;42.646;23.400;2022-11-04T01:23:46;95125.59;;;11.78;65.05
22651;BME280;11492;42.646;23.400;2022-11-04T01:26:14;95128.63;;;11.82;64.87
22651;BME280;11492;42.646;23.400;2022-11-04T01:28:40;95124.00;;;11.77;65.53
22651;BME280;11492;42.646;23.400;2022-11-04T01:31:07;95119.28;;;11.81;65.35
22651;BME280;11492;42.646;23.400;2022-11-04T01:33:33;95117.69;;;11.80;65.10
22651;BME280;11492;42.646;23.400;2022-11-04T01:35:59;95118.38;;;11.74;64.82
22651;BME280;11492;42.646;23.400;2022-11-04T01:38:25;95120.00;;;11.75;64.56
22651;BME280;11492;42.646;23.400;2022-11-04T01:40:50;95118.38;;;11.74;64.83
22651;BME280;11492;42.646;23.400;2022-11-04T01:43:19;95121.53;;;11.70;65.16
22651;BME280;11492;42.646;23.400;2022-11-04T01:45:54;95117.97;;;11.71;65.48
22651;BME280;11492;42.646;23.400;2022-11-04T01:48:28;95121.72;;;11.68;65.00
22651;BME280;11492;42.646;23.400;2022-11-04T01:50:55;95120.38;;;11.72;65.20
22651;BME280;11492;42.646;23.400;2022-11-04T01:55:52;95111.34;;;11.68;64.35
22651;BME280;11492;42.646;23.400;2022-11-04T01:58:21;95106.13;;;11.62;64.56
22651;BME280;11492;42.646;23.400;2022-11-04T02:00:48;95107.31;;;11.59;65.25
22651;BME280;11492;42.646;23.400;2022-11-04T02:03:17;95109.88;;;11.59;65.19
22651;BME280;11492;42.646;23.400;2022-11-04T02:05:45;95100.69;;;11.57;65.42
22651;BME280;11492;42.646;23.400;2022-11-04T02:08:13;95094.66;;;11.50;65.36
22651;BME280;11492;42.646;23.400;2022-11-04T02:10:40;95108.56;;;11.49;65.58
22651;BME280;11492;42.646;23.400;2022-11-04T02:13:10;95104.56;;;11.46;65.27
22651;BME280;11492;42.646;23.400;2022-11-04T02:29:31;95100.09;;;11.12;66.86
22651;BME280;11492;42.646;23.400;2022-11-04T02:46:23;95095.84;;;10.91;67.31
22651;BME280;11492;42.646;23.400;2022-11-04T02:49:29;95085.25;;;10.86;68.42
22651;BME280;11492;42.646;23.400;2022-11-04T02:52:07;95081.78;;;10.79;67.91
22651;BME280;11492;42.646;23.400;2022-11-04T02:54:40;95087.75;;;10.79;67.97
22651;BME280;11492;42.646;23.400;2022-11-04T02:57:10;95088.13;;;10.76;68.31
22651;BME280;11492;42.646;23.400;2022-11-04T02:59:41;95088.28;;;10.75;68.75
22651;BME280;11492;42.646;23.400;2022-11-04T03:02:18;95081.84;;;10.71;69.05
22651;BME280;11492;42.646;23.400;2022-11-04T03:04:49;95083.63;;;10.70;68.38
22651;BME280;11492;42.646;23.400;2022-11-04T03:07:22;95089.50;;;10.65;69.05
22651;BME280;11492;42.646;23.400;2022-11-04T03:09:53;95084.19;;;10.66;68.87
22651;BME280;11492;42.646;23.400;2022-11-04T03:12:23;95089.50;;;10.65;69.08
22651;BME280;11492;42.646;23.400;2022-11-04T03:14:56;95078.75;;;10.61;68.81
22651;BME280;11492;42.646;23.400;2022-11-04T03:17:36;95085.84;;;10.59;69.20
22651;BME280;11492;42.646;23.400;2022-11-04T03:20:08;95084.44;;;10.57;69.57
22651;BME280;11492;42.646;23.400;2022-11-04T03:22:37;95090.31;;;10.51;69.78
22651;BME280;11492;42.646;23.400;2022-11-04T03:25:04;95085.16;;;10.51;69.53
22651;BME280;11492;42.646;23.400;2022-11-04T03:30:19;95087.47;;;10.46;69.93
22651;BME280;11492;42.646;23.400;2022-11-04T03:35:29;95081.03;;;10.42;70.52
22651;BME280;11492;42.646;23.400;2022-11-04T03:37:55;95086.22;;;10.42;70.13
22651;BME280;11492;42.646;23.400;2022-11-04T03:40:21;95090.56;;;10.42;70.20
22651;BME280;11492;42.646;23.400;2022-11-04T03:43:20;95085.59;;;10.40;70.18
22651;BME280;11492;42.646;23.400;2022-11-04T03:45:49;95083.53;;;10.36;70.05
22651;BME280;11492;42.646;23.400;2022-11-04T03:48:14;95079.69;;;10.32;70.26
22651;BME280;11492;42.646;23.400;2022-11-04T03:50:45;95084.38;;;10.28;70.21
22651;BME280;11492;42.646;23.400;2022-11-04T03:53:17;95084.56;;;10.27;70.51
22651;BME280;11492;42.646;23.400;2022-11-04T04:03:47;95075.53;;;10.09;70.83
22651;BME280;11492;42.646;23.400;2022-11-04T04:06:19;95078.66;;;10.04;71.22
22651;BME280;11492;42.646;23.400;2022-11-04T04:08:52;95068.06;;;9.99;70.86
22651;BME280;11492;42.646;23.400;2022-11-04T04:11:18;95080.94;;;9.99;71.68
22651;BME280;11492;42.646;23.400;2022-11-04T04:14:05;95074.53;;;9.96;71.88
22651;BME280;11492;42.646;23.400;2022-11-04T04:16:42;95066.97;;;9.94;71.82
22651;BME280;11492;42.646;23.400;2022-11-04T04:19:10;95075.66;;;9.93;72.22
22651;BME280;11492;42.646;23.400;2022-11-04T04:22:38;95076.81;;;9.91;72.27
22651;BME280;11492;42.646;23.400;2022-11-04T04:24:57;95075.22;;;9.90;72.23
22651;BME280;11492;42.646;23.400;2022-11-04T04:27:43;95075.75;;;9.85;72.35
22651;BME280;11492;42.646;23.400;2022-11-04T04:30:12;95068.50;;;9.81;72.88
22651;BME280;11492;42.646;23.400;2022-11-04T04:32:43;95071.41;;;9.78;73.23
22651;BME280;11492;42.646;23.400;2022-11-04T04:35:09;95079.13;;;9.78;72.63
22651;BME280;11492;42.646;23.400;2022-11-04T04:37:55;95065.34;;;9.71;73.00
22651;BME280;11492;42.646;23.400;2022-11-04T04:40:54;95073.19;;;9.77;73.17
22651;BME280;11492;42.646;23.400;2022-11-04T04:43:42;95060.19;;;9.71;73.45
22651;BME280;11492;42.646;23.400;2022-11-04T04:46:27;95078.03;;;9.72;74.32
22651;BME280;11492;42.646;23.400;2022-11-04T04:48:53;95071.28;;;9.71;73.90
22651;BME280;11492;42.646;23.400;2022-11-04T04:51:20;95078.88;;;9.73;74.41
22651;BME280;11492;42.646;23.400;2022-11-04T04:53:46;95076.44;;;9.71;73.96
22651;BME280;11492;42.646;23.400;2022-11-04T04:56:11;95059.72;;;9.68;74.16
22651;BME280;11492;42.646;23.400;2022-11-04T04:58:36;95070.50;;;9.71;73.63
22651;BME280;11492;42.646;23.400;2022-11-04T05:01:03;95077.59;;;9.69;74.37
22651;BME280;11492;42.646;23.400;2022-11-04T05:03:28;95067.81;;;9.65;74.59
22651;BME280;11492;42.646;23.400;2022-11-04T05:05:54;95070.50;;;9.71;74.14
22651;BME280;11492;42.646;23.400;2022-11-04T05:08:19;95071.13;;;9.73;73.99
22651;BME280;11492;42.646;23.400;2022-11-04T05:10:45;95074.22;;;9.69;74.27
22651;BME280;11492;42.646;23.400;2022-11-04T05:13:11;95073.75;;;9.65;74.42
22651;BME280;11492;42.646;23.400;2022-11-04T05:16:02;95071.19;;;9.65;74.57
22651;BME280;11492;42.646;23.400;2022-11-04T05:18:28;95082.59;;;9.70;74.33
22651;BME280;11492;42.646;23.400;2022-11-04T05:20:53;95083.38;;;9.71;74.94
22651;BME280;11492;42.646;23.400;2022-11-04T05:23:18;95082.41;;;9.72;75.13
22651;BME280;11492;42.646;23.400;2022-11-04T05:25:44;95084.66;;;9.75;75.00
22651;BME280;11492;42.646;23.400;2022-11-04T05:28:09;95091.75;;;9.73;74.62
22651;BME280;11492;42.646;23.400;2022-11-04T05:30:35;95078.50;;;9.76;75.30
22651;BME280;11492;42.646;23.400;2022-11-04T05:33:01;95069.59;;;9.64;75.40
22651;BME280;11492;42.646;23.400;2022-11-04T05:35:26;95085.91;;;9.79;75.17
22651;BME280;11492;42.646;23.400;2022-11-04T05:37:54;95070.59;;;9.77;75.14
22651;BME280;11492;42.646;23.400;2022-11-04T05:40:19;95090.97;;;9.95;75.24
22651;BME280;11492;42.646;23.400;2022-11-04T05:42:48;95091.78;;;9.95;75.16
22651;BME280;11492;42.646;23.400;2022-11-04T05:45:13;95072.38;;;9.77;74.93
22651;BME280;11492;42.646;23.400;2022-11-04T05:47:39;95087.13;;;9.91;74.89
22651;BME280;11492;42.646;23.400;2022-11-04T05:50:05;95087.44;;;9.96;75.18
22651;BME280;11492;42.646;23.400;2022-11-04T05:52:30;95094.19;;;9.96;74.87
22651;BME280;11492;42.646;23.400;2022-11-04T05:54:56;95101.22;;;10.02;75.42
22651;BME280;11492;42.646;23.400;2022-11-04T05:57:21;95107.13;;;10.11;75.26
22651;BME280;11492;42.646;23.400;2022-11-04T05:59:47;95112.22;;;10.19;75.31
22651;BME280;11492;42.646;23.400;2022-11-04T06:02:12;95115.06;;;10.23;74.97
22651;BME280;11492;42.646;23.400;2022-11-04T06:04:38;95121.16;;;10.30;74.33
22651;BME280;11492;42.646;23.400;2022-11-04T06:07:03;95120.91;;;10.40;74.69
22651;BME280;11492;42.646;23.400;2022-11-04T06:09:29;95116.19;;;10.43;74.98
22651;BME280;11492;42.646;23.400;2022-11-04T06:12:08;95113.00;;;10.41;74.63
22651;BME280;11492;42.646;23.400;2022-11-04T06:14:34;95111.78;;;10.51;74.47
22651;BME280;11492;42.646;23.400;2022-11-04T06:16:59;95120.31;;;10.52;74.46
22651;BME280;11492;42.646;23.400;2022-11-04T06:19:25;95114.53;;;10.64;74.44
22651;BME280;11492;42.646;23.400;2022-11-04T06:21:51;95124.94;;;10.70;74.22
22651;BME280;11492;42.646;23.400;2022-11-04T06:24:17;95115.19;;;10.66;74.26
22651;BME280;11492;42.646;23.400;2022-11-04T06:26:42;95116.34;;;10.78;74.47
22651;BME280;11492;42.646;23.400;2022-11-04T06:29:07;95120.06;;;10.90;74.00
22651;BME280;11492;42.646;23.400;2022-11-04T06:31:34;95110.00;;;10.95;73.66
22651;BME280;11492;42.646;23.400;2022-11-04T06:34:00;95107.88;;;10.98;73.60
22651;BME280;11492;42.646;23.400;2022-11-04T06:36:25;95121.59;;;11.13;73.83
22651;BME280;11492;42.646;23.400;2022-11-04T06:38:50;95115.34;;;11.21;73.08
22651;BME280;11492;42.646;23.400;2022-11-04T06:41:16;95108.03;;;11.25;73.77
22651;BME280;11492;42.646;23.400;2022-11-04T06:43:42;95107.75;;;11.34;72.96
22651;BME280;11492;42.646;23.400;2022-11-04T06:48:48;95114.34;;;11.51;72.03
22651;BME280;11492;42.646;23.400;2022-11-04T06:51:13;95108.72;;;11.62;72.55
22651;BME280;11492;42.646;23.400;2022-11-04T06:53:39;95114.75;;;11.69;72.31
22651;BME280;11492;42.646;23.400;2022-11-04T06:56:04;95113.31;;;11.80;72.07
22651;BME280;11492;42.646;23.400;2022-11-04T06:58:31;95109.78;;;11.88;70.91
22651;BME280;11492;42.646;23.400;2022-11-04T07:00:56;95112.31;;;12.02;70.26
22651;BME280;11492;42.646;23.400;2022-11-04T07:03:21;95108.19;;;12.07;69.94
22651;BME280;11492;42.646;23.400;2022-11-04T07:05:47;95107.25;;;12.15;69.69
22651;BME280;11492;42.646;23.400;2022-11-04T07:08:13;95102.56;;;12.24;69.91
22651;BME280;11492;42.646;23.400;2022-11-04T07:10:38;95096.41;;;12.25;69.72
22651;BME280;11492;42.646;23.400;2022-11-04T07:13:03;95106.13;;;12.44;68.72
22651;BME280;11492;42.646;23.400;2022-11-04T07:15:29;95103.59;;;12.50;68.38
22651;BME280;11492;42.646;23.400;2022-11-04T07:17:57;95104.31;;;12.65;68.33
22651;BME280;11492;42.646;23.400;2022-11-04T07:20:23;95100.41;;;12.75;66.71
22651;BME280;11492;42.646;23.400;2022-11-04T07:22:48;95097.50;;;12.85;67.33
22651;BME280;11492;42.646;23.400;2022-11-04T07:25:14;95093.38;;;12.96;66.45
22651;BME280;11492;42.646;23.400;2022-11-04T07:27:39;95094.03;;;13.05;66.12
22651;BME280;11492;42.646;23.400;2022-11-04T07:30:05;95087.50;;;13.15;65.58
22651;BME280;11492;42.646;23.400;2022-11-04T07:32:31;95070.38;;;13.21;66.01
22651;BME280;11492;42.646;23.400;2022-11-04T07:34:57;95069.41;;;13.28;65.26
22651;BME280;11492;42.646;23.400;2022-11-04T07:37:22;95078.44;;;13.38;65.76
22651;BME280;11492;42.646;23.400;2022-11-04T07:39:48;95057.47;;;13.40;64.68
22651;BME280;11492;42.646;23.400;2022-11-04T07:42:13;95064.34;;;13.60;64.27
22651;BME280;11492;42.646;23.400;2022-11-04T07:44:38;95063.97;;;13.69;63.85
22651;BME280;11492;42.646;23.400;2022-11-04T07:47:04;95064.38;;;13.79;63.97
22651;BME280;11492;42.646;23.400;2022-11-04T07:49:29;95066.78;;;13.87;63.01
22651;BME280;11492;42.646;23.400;2022-11-04T07:51:55;95054.09;;;13.98;63.49
22651;BME280;11492;42.646;23.400;2022-11-04T07:54:20;95056.88;;;14.09;63.63
22651;BME280;11492;42.646;23.400;2022-11-04T07:56:45;95054.91;;;14.24;62.90
22651;BME280;11492;42.646;23.400;2022-11-04T07:59:11;95061.91;;;14.30;62.81
22651;BME280;11492;42.646;23.400;2022-11-04T08:01:37;95058.56;;;15.30;61.20
22651;BME280;11492;42.646;23.400;2022-11-04T08:04:02;95045.38;;;17.54;54.60
22651;BME280;11492;42.646;23.400;2022-11-04T08:06:29;95036.75;;;19.42;48.80
22651;BME280;11492;42.646;23.400;2022-11-04T08:08:57;95039.13;;;20.97;44.43
22651;BME280;11492;42.646;23.400;2022-11-04T08:11:23;95019.81;;;22.08;42.59
22651;BME280;11492;42.646;23.400;2022-11-04T08:13:52;95034.56;;;22.92;40.04
22651;BME280;11492;42.646;23.400;2022-11-04T08:16:20;95035.13;;;23.90;38.42
22651;BME280;11492;42.646;23.400;2022-11-04T08:18:47;95025.31;;;25.04;36.40
22651;BME280;11492;42.646;23.400;2022-11-04T08:21:12;95033.81;;;26.03;34.90
22651;BME280;11492;42.646;23.400;2022-11-04T08:23:38;95014.75;;;26.01;33.48
22651;BME280;11492;42.646;23.400;2022-11-04T08:26:08;95023.19;;;26.13;33.29
22651;BME280;11492;42.646;23.400;2022-11-04T08:28:34;95019.34;;;26.81;32.50
22651;BME280;11492;42.646;23.400;2022-11-04T08:31:15;95017.91;;;26.93;31.96
22651;BME280;11492;42.646;23.400;2022-11-04T08:33:41;95014.38;;;27.03;31.49
22651;BME280;11492;42.646;23.400;2022-11-04T08:36:10;95011.09;;;27.66;30.98
22651;BME280;11492;42.646;23.400;2022-11-04T08:38:36;95015.75;;;27.79;30.14
22651;BME280;11492;42.646;23.400;2022-11-04T08:41:03;94989.19;;;27.79;30.04
22651;BME280;11492;42.646;23.400;2022-11-04T08:43:29;95000.50;;;28.49;29.53
22651;BME280;11492;42.646;23.400;2022-11-04T08:45:55;95003.22;;;28.80;28.52
22651;BME280;11492;42.646;23.400;2022-11-04T08:48:20;94990.41;;;28.28;28.76
22651;BME280;11492;42.646;23.400;2022-11-04T08:50:51;94999.13;;;28.69;29.20
22651;BME280;11492;42.646;23.400;2022-11-04T08:53:17;95008.19;;;29.18;28.41
22651;BME280;11492;42.646;23.400;2022-11-04T08:55:42;95003.34;;;29.06;27.96
22651;BME280;11492;42.646;23.400;2022-11-04T08:58:08;94988.88;;;28.63;28.15
22651;BME280;11492;42.646;23.400;2022-11-04T09:00:33;94996.63;;;28.59;28.78
22651;BME280;11492;42.646;23.400;2022-11-04T09:03:00;94980.13;;;28.76;28.44
22651;BME280;11492;42.646;23.400;2022-11-04T09:05:26;94988.66;;;29.09;27.91
22651;BME280;11492;42.646;23.400;2022-11-04T09:07:51;94991.34;;;27.26;29.50
22651;BME280;11492;42.646;23.400;2022-11-04T09:10:17;94985.16;;;27.35;29.48
22651;BME280;11492;42.646;23.400;2022-11-04T09:12:43;94980.19;;;27.52;29.51
22651;BME280;11492;42.646;23.400;2022-11-04T09:15:09;94981.16;;;27.61;29.84
22651;BME280;11492;42.646;23.400;2022-11-04T09:17:36;94966.13;;;27.52;29.41
22651;BME280;11492;42.646;23.400;2022-11-04T09:20:02;94968.78;;;27.52;29.83
22651;BME280;11492;42.646;23.400;2022-11-04T09:22:27;94958.47;;;27.50;29.55
22651;BME280;11492;42.646;23.400;2022-11-04T09:24:53;94956.66;;;27.46;29.87
22651;BME280;11492;42.646;23.400;2022-11-04T09:27:18;94943.94;;;27.43;29.55
22651;BME280;11492;42.646;23.400;2022-11-04T09:29:44;94946.50;;;27.02;30.02
22651;BME280;11492;42.646;23.400;2022-11-04T09:32:09;94960.91;;;27.19;29.79
22651;BME280;11492;42.646;23.400;2022-11-04T09:34:35;94951.91;;;27.43;29.58
22651;BME280;11492;42.646;23.400;2022-11-04T09:37:00;94950.38;;;27.37;29.77
22651;BME280;11492;42.646;23.400;2022-11-04T09:39:26;94946.75;;;27.51;29.46
22651;BME280;11492;42.646;23.400;2022-11-04T09:45:02;94929.13;;;28.19;28.86
22651;BME280;11492;42.646;23.400;2022-11-04T09:47:31;94924.28;;;28.26;28.33
22651;BME280;11492;42.646;23.400;2022-11-04T09:49:58;94923.81;;;28.37;28.78
22651;BME280;11492;42.646;23.400;2022-11-04T09:52:35;94915.72;;;28.79;27.39
22651;BME280;11492;42.646;23.400;2022-11-04T09:57:35;94911.84;;;28.40;27.86
22651;BME280;11492;42.646;23.400;2022-11-04T10:00:02;94906.50;;;28.58;28.27
22651;BME280;11492;42.646;23.400;2022-11-04T10:03:11;94893.94;;;29.21;27.36
22651;BME280;11492;42.646;23.400;2022-11-04T10:08:53;94874.50;;;29.74;26.51
22651;BME280;11492;42.646;23.400;2022-11-04T10:19:37;94876.94;;;30.32;25.87
22651;BME280;11492;42.646;23.400;2022-11-04T10:22:31;94860.91;;;30.10;26.21
22651;BME280;11492;42.646;23.400;2022-11-04T10:25:20;94858.22;;;30.45;25.80
22651;BME280;11492;42.646;23.400;2022-11-04T10:27:47;94855.56;;;30.66;25.95
22651;BME280;11492;42.646;23.400;2022-11-04T10:30:23;94847.84;;;30.65;25.83
22651;BME280;11492;42.646;23.400;2022-11-04T10:32:58;94844.09;;;30.96;25.68
22651;BME280;11492;42.646;23.400;2022-11-04T10:35:53;94827.97;;;31.09;25.48
22651;BME280;11492;42.646;23.400;2022-11-04T10:40:53;94825.25;;;32.27;24.13
22651;BME280;11492;42.646;23.400;2022-11-04T10:43:32;94821.47;;;31.95;24.62
22651;BME280;11492;42.646;23.400;2022-11-04T10:51:15;94799.66;;;32.88;23.58
22651;BME280;11492;42.646;23.400;2022-11-04T10:53:44;94806.16;;;32.54;23.57
22651;BME280;11492;42.646;23.400;2022-11-04T10:58:52;94784.78;;;34.13;22.41
22651;BME280;11492;42.646;23.400;2022-11-04T11:01:32;94782.41;;;33.91;22.67
22651;BME280;11492;42.646;23.400;2022-11-04T11:03:59;94774.16;;;33.76;22.46
22651;BME280;11492;42.646;23.400;2022-11-04T11:08:55;94770.63;;;33.35;23.00
22651;BME280;11492;42.646;23.400;2022-11-04T11:11:59;94764.25;;;32.83;23.43
22651;BME280;11492;42.646;23.400;2022-11-04T11:16:54;94749.66;;;32.63;23.46
22651;BME280;11492;42.646;23.400;2022-11-04T11:19:21;94751.47;;;32.88;22.73
22651;BME280;11492;42.646;23.400;2022-11-04T11:21:49;94749.00;;;33.40;22.79
22651;BME280;11492;42.646;23.400;2022-11-04T11:24:27;94731.53;;;32.69;23.56
22651;BME280;11492;42.646;23.400;2022-11-04T11:27:00;94730.63;;;32.93;22.69
22651;BME280;11492;42.646;23.400;2022-11-04T11:29:30;94733.06;;;34.24;21.97
22651;BME280;11492;42.646;23.400;2022-11-04T11:32:04;94734.78;;;33.88;22.18
22651;BME280;11492;42.646;23.400;2022-11-04T11:34:32;94718.03;;;33.91;22.28
22651;BME280;11492;42.646;23.400;2022-11-04T11:37:01;94715.78;;;33.12;22.47
22651;BME280;11492;42.646;23.400;2022-11-04T11:39:31;94706.34;;;33.27;23.05
22651;BME280;11492;42.646;23.400;2022-11-04T11:42:00;94701.28;;;33.74;21.73
22651;BME280;11492;42.646;23.400;2022-11-04T11:44:32;94691.53;;;33.01;22.48
22651;BME280;11492;42.646;23.400;2022-11-04T11:47:04;94688.84;;;32.72;22.65
22651;BME280;11492;42.646;23.400;2022-11-04T11:49:34;94686.88;;;33.38;23.19
22651;BME280;11492;42.646;23.400;2022-11-04T11:55:00;94664.59;;;34.62;21.69
22651;BME280;11492;42.646;23.400;2022-11-04T12:00:18;94661.41;;;33.52;22.22
22651;BME280;11492;42.646;23.400;2022-11-04T12:05:33;94654.78;;;31.41;24.57
22651;BME280;11492;42.646;23.400;2022-11-04T12:11:07;94652.16;;;29.36;26.83
22651;BME280;11492;42.646;23.400;2022-11-04T12:13:41;94651.31;;;28.66;27.54
22651;BME280;11492;42.646;23.400;2022-11-04T12:18:51;94652.66;;;27.66;28.76
22651;BME280;11492;42.646;23.400;2022-11-04T12:21:30;94648.28;;;27.26;29.25
22651;BME280;11492;42.646;23.400;2022-11-04T12:37:37;94658.84;;;24.66;33.15
22651;BME280;11492;42.646;23.400;2022-11-04T12:48:09;94650.16;;;23.74;35.05
22651;BME280;11492;42.646;23.400;2022-11-04T12:50:55;94628.88;;;23.46;35.78
22651;BME280;11492;42.646;23.400;2022-11-04T12:56:18;94626.66;;;23.97;35.28
22651;BME280;11492;42.646;23.400;2022-11-04T13:01:37;94622.31;;;24.30;34.52
22651;BME280;11492;42.646;23.400;2022-11-04T13:04:10;94628.69;;;24.24;34.98
22651;BME280;11492;42.646;23.400;2022-11-04T13:06:59;94629.03;;;23.93;34.96
22651;BME280;11492;42.646;23.400;2022-11-04T13:09:44;94632.75;;;23.77;36.02
22651;BME280;11492;42.646;23.400;2022-11-04T13:12:20;94627.00;;;23.41;36.01
22651;BME280;11492;42.646;23.400;2022-11-04T13:17:21;94615.41;;;23.08;37.46
22651;BME280;11492;42.646;23.400;2022-11-04T13:19:50;94621.97;;;22.86;37.32
22651;BME280;11492;42.646;23.400;2022-11-04T13:22:30;94617.44;;;22.72;37.29
22651;BME280;11492;42.646;23.400;2022-11-04T13:25:04;94618.75;;;22.59;37.86
22651;BME280;11492;42.646;23.400;2022-11-04T13:27:36;94623.41;;;22.23;37.80
22651;BME280;11492;42.646;23.400;2022-11-04T13:30:29;94635.44;;;22.09;37.79
22651;BME280;11492;42.646;23.400;2022-11-04T13:35:59;94605.84;;;21.83;39.04
22651;BME280;11492;42.646;23.400;2022-11-04T13:38:46;94612.19;;;21.92;39.15
22651;BME280;11492;42.646;23.400;2022-11-04T13:44:12;94626.63;;;21.84;38.79
22651;BME280;11492;42.646;23.400;2022-11-04T13:46:39;94618.94;;;21.73;39.57
22651;BME280;11492;42.646;23.400;2022-11-04T13:49:19;94613.28;;;21.50;39.80
22651;BME280;11492;42.646;23.400;2022-11-04T13:52:06;94621.09;;;21.40;40.16
22651;BME280;11492;42.646;23.400;2022-11-04T13:54:53;94619.19;;;21.31;40.51
22651;BME280;11492;42.646;23.400;2022-11-04T13:57:33;94618.38;;;21.25;40.67
22651;BME280;11492;42.646;23.400;2022-11-04T14:02:45;94606.31;;;20.98;41.27
22651;BME280;11492;42.646;23.400;2022-11-04T14:18:47;94593.72;;;20.70;42.48
22651;BME280;11492;42.646;23.400;2022-11-04T14:21:17;94609.31;;;20.76;42.23
22651;BME280;11492;42.646;23.400;2022-11-04T14:26:18;94611.03;;;20.66;42.69
22651;BME280;11492;42.646;23.400;2022-11-04T14:29:23;94601.97;;;20.52;42.79
22651;BME280;11492;42.646;23.400;2022-11-04T14:31:49;94614.78;;;20.48;43.72
22651;BME280;11492;42.646;23.400;2022-11-04T14:34:41;94611.13;;;20.28;43.71
22651;BME280;11492;42.646;23.400;2022-11-04T14:37:21;94595.81;;;20.16;44.21
22651;BME280;11492;42.646;23.400;2022-11-04T14:39:58;94618.63;;;20.15;43.41
22651;BME280;11492;42.646;23.400;2022-11-04T14:45:23;94606.31;;;19.95;44.00
22651;BME280;11492;42.646;23.400;2022-11-04T14:47:58;94587.31;;;19.83;44.26
22651;BME280;11492;42.646;23.400;2022-11-04T14:50:26;94608.50;;;19.81;44.06
22651;BME280;11492;42.646;23.400;2022-11-04T14:52:58;94607.03;;;19.69;44.87
22651;BME280;11492;42.646;23.400;2022-11-04T14:55:27;94603.28;;;19.65;45.01
22651;BME280;11492;42.646;23.400;2022-11-04T14:57:56;94597.56;;;19.47;44.99
22651;BME280;11492;42.646;23.400;2022-11-04T15:00:34;94597.88;;;19.34;45.76
22651;BME280;11492;42.646;23.400;2022-11-04T15:03:11;94604.00;;;19.23;45.88
22651;BME280;11492;42.646;23.400;2022-11-04T15:05:39;94597.84;;;19.13;46.24
22651;BME280;11492;42.646;23.400;2022-11-04T15:08:30;94589.63;;;19.05;46.09
22651;BME280;11492;42.646;23.400;2022-11-04T15:11:05;94586.53;;;18.92;46.21
22651;BME280;11492;42.646;23.400;2022-11-04T15:13:35;94576.47;;;18.84;46.37
22651;BME280;11492;42.646;23.400;2022-11-04T15:16:06;94587.91;;;18.83;46.60
22651;BME280;11492;42.646;23.400;2022-11-04T15:18:36;94580.06;;;18.67;46.33
22651;BME280;11492;42.646;23.400;2022-11-04T15:21:04;94576.13;;;18.64;46.33
22651;BME280;11492;42.646;23.400;2022-11-04T15:23:33;94579.19;;;18.61;47.00
22651;BME280;11492;42.646;23.400;2022-11-04T15:25:59;94583.56;;;18.56;46.52
22651;BME280;11492;42.646;23.400;2022-11-04T15:28:29;94600.03;;;18.40;47.31
22651;BME280;11492;42.646;23.400;2022-11-04T15:31:22;94593.97;;;18.23;47.41
22651;BME280;11492;42.646;23.400;2022-11-04T15:33:52;94577.69;;;18.05;47.50
22651;BME280;11492;42.646;23.400;2022-11-04T15:36:34;94599.53;;;17.99;48.26
22651;BME280;11492;42.646;23.400;2022-11-04T15:39:16;94587.44;;;17.71;48.29